Snyder, Missouri
Current Conditions -  °F | °C
As of 4:35 AM on Monday 22 Dec 2014 (Local Time) from KVER Reporting Station
Drizzle Drizzle  
Wind Chill: 37°   Ceiling: 3100
Heat Index: 42°   Visibility: 10mi
Dew Point: 37°   Wind: 7mph
Humidity: 84%   Direction: 130°SE
Pressure: 29.71"   Gusts: NA
Location:  39.5082°N, 93.2104°W
Report Text: KVER 221035Z AUTO 13006KT 10SM -DZ OVC031 05/03 A2971 RMK AO2 T00530028
Loading
Personal Weather Stations






























Interactive Weather Map New forecast layout! Learn more

10-Day Weather Forecast

Advertisements
Track Severe Weather on mobile